Time;durP1;ratioP1;P1;durP2;ratioP2;P2;SDS_P1;SDS_P2;PMS_P1;PMS_P2;Temp;Humidity;BMP_temperature;BMP_pressure;BME280_temperature;BME280_humidity;BME280_pressure;Samples;Min_cycle;Max_cycle;Signal;HPM_P1;HPM_P2
2023/08/05 00:01:09;;;;;;;6.00;4.38;;;13.00;99.90;;;;;;5109149;28;20042;-52
2023/08/05 00:03:35;;;;;;;5.55;4.03;;;13.00;99.90;;;;;;5088433;28;20027;-53
2023/08/05 00:06:00;;;;;;;7.95;5.30;;;12.90;99.90;;;;;;5088372;28;20032;-52
2023/08/05 00:08:26;;;;;;;5.90;4.55;;;12.90;99.90;;;;;;5106430;28;20122;-54
2023/08/05 00:10:51;;;;;;;4.40;4.00;;;12.90;99.90;;;;;;5108905;28;20034;-54
2023/08/05 00:13:17;;;;;;;5.85;4.15;;;12.90;99.90;;;;;;5088380;28;20028;-52
2023/08/05 00:15:43;;;;;;;5.32;4.07;;;12.80;99.90;;;;;;5103254;28;20068;-53
2023/08/05 00:18:09;;;;;;;5.82;3.95;;;12.80;99.90;;;;;;5086819;28;20368;-52
2023/08/05 00:20:34;;;;;;;4.70;3.95;;;12.80;99.90;;;;;;5094327;28;20286;-53
2023/08/05 00:23:00;;;;;;;6.28;4.40;;;12.80;99.90;;;;;;5096645;28;20507;-53
2023/08/05 00:25:25;;;;;;;5.38;3.70;;;12.70;99.90;;;;;;5095121;28;20038;-51
2023/08/05 00:27:51;;;;;;;7.80;4.53;;;12.70;99.90;;;;;;5107920;28;20372;-53
2023/08/05 00:30:16;;;;;;;4.75;4.30;;;12.70;99.90;;;;;;5100311;28;20065;-52
2023/08/05 00:32:42;;;;;;;9.38;4.47;;;12.60;99.90;;;;;;5092736;28;20024;-53
2023/08/05 00:35:08;;;;;;;4.70;4.15;;;12.60;99.90;;;;;;5103901;28;20453;-54
2023/08/05 00:37:34;;;;;;;5.18;4.25;;;12.60;99.90;;;;;;5091391;28;20028;-54
2023/08/05 00:40:00;;;;;;;6.43;4.57;;;12.60;99.90;;;;;;5109976;28;20518;-53
2023/08/05 00:42:26;;;;;;;5.95;4.70;;;12.60;99.90;;;;;;5111286;28;20031;-53
2023/08/05 00:44:52;;;;;;;5.05;4.32;;;12.60;99.90;;;;;;5097067;28;20023;-51
2023/08/05 00:47:20;;;;;;;5.75;4.47;;;12.50;99.90;;;;;;5112164;28;20023;-54
2023/08/05 00:49:49;;;;;;;6.35;4.50;;;12.50;99.90;;;;;;5095778;28;20027;-55
2023/08/05 00:52:16;;;;;;;5.38;4.10;;;12.50;99.90;;;;;;5112243;28;20160;-53
2023/08/05 00:54:42;;;;;;;5.03;4.53;;;12.50;99.90;;;;;;5095471;27;20119;-55
2023/08/05 00:57:10;;;;;;;7.65;4.93;;;12.50;99.90;;;;;;5112221;28;20063;-49
2023/08/05 00:59:35;;;;;;;5.82;4.38;;;12.40;99.90;;;;;;5094147;28;20027;-55
2023/08/05 01:02:01;;;;;;;4.65;4.13;;;12.40;99.90;;;;;;5112093;28;20027;-54
2023/08/05 01:04:27;;;;;;;12.30;5.47;;;12.40;99.90;;;;;;5091897;28;20020;-52
2023/08/05 01:06:53;;;;;;;7.25;5.15;;;12.40;99.90;;;;;;5110190;28;20019;-55
2023/08/05 01:09:19;;;;;;;5.10;4.55;;;12.40;99.90;;;;;;5091486;28;20044;-51
2023/08/05 01:11:45;;;;;;;6.18;5.00;;;12.40;99.90;;;;;;5110042;28;20055;-54
2023/08/05 01:14:11;;;;;;;7.40;4.68;;;12.40;99.90;;;;;;5092062;28;20117;-54
2023/08/05 01:16:36;;;;;;;6.47;5.22;;;12.30;99.90;;;;;;5103501;28;20027;-52
2023/08/05 01:19:04;;;;;;;5.82;4.68;;;12.30;99.90;;;;;;5109964;28;20132;-54
2023/08/05 01:21:40;;;;;;;4.95;4.43;;;12.30;99.90;;;;;;5091636;28;20542;-51
2023/08/05 01:24:29;;;;;;;5.07;4.32;;;12.30;99.90;;;;;;5085928;28;20089;-54
2023/08/05 01:26:55;;;;;;;7.20;4.78;;;12.30;99.90;;;;;;5084162;28;20152;-54
2023/08/05 01:29:22;;;;;;;4.50;4.10;;;12.20;99.90;;;;;;5108926;28;20433;-53
2023/08/05 01:31:51;;;;;;;6.35;4.50;;;12.20;99.90;;;;;;5094994;28;20023;-53
2023/08/05 01:34:16;;;;;;;7.97;4.47;;;12.20;99.90;;;;;;5101328;28;20016;-54
2023/08/05 01:36:42;;;;;;;5.70;4.95;;;12.20;99.90;;;;;;5102819;28;20028;-54
2023/08/05 01:39:07;;;;;;;5.20;4.68;;;12.20;99.90;;;;;;5091420;28;20421;-55
2023/08/05 01:41:33;;;;;;;6.50;4.35;;;12.20;99.90;;;;;;5094001;28;20653;-55
2023/08/05 01:43:58;;;;;;;5.68;4.40;;;12.20;99.90;;;;;;5102846;28;20039;-57
2023/08/05 01:46:24;;;;;;;5.70;4.95;;;12.20;99.90;;;;;;5100211;28;20448;-62
2023/08/05 01:48:49;;;;;;;5.20;4.07;;;12.20;99.90;;;;;;5091380;28;20048;-57
2023/08/05 01:51:15;;;;;;;6.53;4.32;;;12.20;99.90;;;;;;5108252;28;20027;-58
2023/08/05 01:53:40;;;;;;;4.60;3.97;;;12.20;99.90;;;;;;5091194;28;20032;-57
2023/08/05 01:56:06;;;;;;;5.68;3.78;;;12.30;99.90;;;;;;5108386;28;20031;-57
2023/08/05 01:58:31;;;;;;;5.07;3.90;;;12.20;99.90;;;;;;5091297;28;20031;-57
2023/08/05 02:00:57;;;;;;;5.68;4.15;;;12.20;99.90;;;;;;5108150;28;20035;-57
2023/08/05 02:03:22;;;;;;;6.30;3.88;;;12.20;99.90;;;;;;5111140;28;20397;-57
2023/08/05 02:05:48;;;;;;;4.93;3.90;;;12.20;99.90;;;;;;5095053;28;20087;-57
2023/08/05 02:08:13;;;;;;;5.47;4.50;;;12.20;99.90;;;;;;5110875;28;20106;-57
2023/08/05 02:10:40;;;;;;;4.97;4.05;;;12.20;99.90;;;;;;5093559;28;20403;-59
2023/08/05 02:13:06;;;;;;;4.82;3.85;;;12.20;99.90;;;;;;5110905;27;20491;-59
2023/08/05 02:15:32;;;;;;;4.82;3.80;;;12.20;99.90;;;;;;5092567;28;20026;-55
2023/08/05 02:17:57;;;;;;;6.57;4.13;;;12.20;99.90;;;;;;5110454;28;20098;-55
2023/08/05 02:20:23;;;;;;;5.05;4.25;;;12.20;99.90;;;;;;5091561;28;20034;-57
2023/08/05 02:22:48;;;;;;;5.25;4.10;;;12.20;99.90;;;;;;5110624;28;20020;-57
2023/08/05 02:25:14;;;;;;;4.05;3.65;;;12.20;99.90;;;;;;5088607;28;20020;-57
2023/08/05 02:27:39;;;;;;;3.63;3.13;;;12.10;99.90;;;;;;5110292;28;20084;-58
2023/08/05 02:30:08;;;;;;;4.03;3.63;;;12.20;99.90;;;;;;5095857;28;20083;-57
2023/08/05 02:32:33;;;;;;;5.63;3.17;;;12.10;99.90;;;;;;5069925;28;20040;-57
2023/08/05 02:34:59;;;;;;;4.55;4.07;;;12.10;99.90;;;;;;5103551;28;20372;-58
2023/08/05 02:37:24;;;;;;;4.25;3.38;;;12.10;99.90;;;;;;5088769;28;20090;-57
2023/08/05 02:39:50;;;;;;;5.00;3.22;;;12.10;99.90;;;;;;5109566;28;20445;-58
2023/08/05 02:42:15;;;;;;;4.43;3.25;;;12.10;99.90;;;;;;5088440;28;20488;-56
2023/08/05 02:44:41;;;;;;;3.80;3.30;;;12.00;99.90;;;;;;5109481;28;20068;-60
2023/08/05 02:47:06;;;;;;;4.78;3.40;;;12.00;99.90;;;;;;5088562;28;20032;-60
2023/08/05 02:49:32;;;;;;;4.85;3.53;;;12.00;99.90;;;;;;5109293;28;20040;-60
2023/08/05 02:51:57;;;;;;;4.20;3.00;;;12.00;99.90;;;;;;5086769;28;20059;-60
2023/08/05 02:54:23;;;;;;;3.03;2.70;;;12.00;99.90;;;;;;5109290;28;20285;-60
2023/08/05 02:56:48;;;;;;;4.30;3.50;;;11.90;99.90;;;;;;5088276;28;20069;-59
2023/08/05 02:59:14;;;;;;;5.05;3.10;;;11.90;99.90;;;;;;5109066;28;20024;-60
2023/08/05 03:01:39;;;;;;;7.55;3.33;;;11.90;99.90;;;;;;5088145;28;20035;-60
2023/08/05 03:04:05;;;;;;;3.22;2.92;;;11.90;99.90;;;;;;5109112;28;20031;-60
2023/08/05 03:06:30;;;;;;;5.63;3.00;;;12.00;99.90;;;;;;5088371;28;20028;-61
2023/08/05 03:08:56;;;;;;;4.15;3.28;;;11.90;99.90;;;;;;5108648;28;20440;-60
2023/08/05 03:11:21;;;;;;;6.43;3.53;;;11.90;99.90;;;;;;5098663;28;20064;-60
2023/08/05 03:13:47;;;;;;;6.88;3.45;;;11.90;99.90;;;;;;5089875;28;20062;-60
2023/08/05 03:16:14;;;;;;;5.47;3.50;;;11.90;99.90;;;;;;5105448;28;20675;-60
2023/08/05 03:18:40;;;;;;;4.50;3.13;;;11.90;99.90;;;;;;5089631;28;20076;-60
2023/08/05 03:21:05;;;;;;;4.35;3.15;;;11.90;99.90;;;;;;5107483;28;20019;-60
2023/08/05 03:23:31;;;;;;;6.85;3.30;;;11.90;99.90;;;;;;5089737;28;20111;-61
2023/08/05 03:25:56;;;;;;;6.07;2.92;;;12.00;99.90;;;;;;5106520;28;20031;-60
2023/08/05 03:28:22;;;;;;;5.55;3.13;;;11.90;99.90;;;;;;5109514;28;20110;-60
2023/08/05 03:30:47;;;;;;;5.40;3.17;;;11.90;99.90;;;;;;5092090;28;20427;-59
2023/08/05 03:33:13;;;;;;;7.38;3.53;;;11.90;99.90;;;;;;5108526;28;20243;-59
2023/08/05 03:35:43;;;;;;;5.88;3.63;;;11.90;99.90;;;;;;5088961;28;20024;-60
2023/08/05 03:38:08;;;;;;;3.97;3.38;;;12.00;99.90;;;;;;5109534;28;20030;-59
2023/08/05 03:40:34;;;;;;;7.05;3.50;;;12.00;99.90;;;;;;5091263;28;20024;-60
2023/08/05 03:43:00;;;;;;;5.68;3.78;;;12.00;99.90;;;;;;5109339;28;20413;-60
2023/08/05 03:45:25;;;;;;;3.50;3.10;;;12.00;99.90;;;;;;5090384;28;20746;-60
2023/08/05 03:47:51;;;;;;;3.67;3.33;;;12.10;99.90;;;;;;5108958;28;20481;-60
2023/08/05 03:50:17;;;;;;;6.63;3.28;;;12.10;99.90;;;;;;5087277;28;20028;-59
2023/08/05 03:52:43;;;;;;;3.90;3.50;;;12.10;99.90;;;;;;5109193;28;20024;-60
2023/08/05 03:55:09;;;;;;;3.67;3.28;;;12.10;99.90;;;;;;5087826;28;20032;-60
2023/08/05 03:57:34;;;;;;;3.92;2.90;;;12.10;99.90;;;;;;5109151;28;20699;-60
2023/08/05 04:00:00;;;;;;;4.88;3.08;;;12.20;99.90;;;;;;5089141;28;20402;-60
2023/08/05 04:02:26;;;;;;;3.85;3.45;;;12.20;99.90;;;;;;5086892;28;20032;-60
2023/08/05 04:04:52;;;;;;;3.92;2.97;;;12.30;99.90;;;;;;5107736;28;20070;-61
2023/08/05 04:07:19;;;;;;;5.50;3.00;;;12.30;99.90;;;;;;5087383;28;20048;-60
2023/08/05 04:09:47;;;;;;;5.22;3.35;;;12.40;99.90;;;;;;5108801;28;20059;-61
2023/08/05 04:12:14;;;;;;;4.18;2.40;;;12.40;99.90;;;;;;5086823;28;20127;-61
2023/08/05 04:14:40;;;;;;;3.65;3.25;;;12.40;99.90;;;;;;5108435;28;20475;-61
2023/08/05 04:17:06;;;;;;;6.95;4.20;;;12.50;99.90;;;;;;5085930;28;20056;-60
2023/08/05 04:19:33;;;;;;;6.88;3.55;;;12.60;99.90;;;;;;5108345;28;20028;-60
2023/08/05 04:22:00;;;;;;;3.70;3.38;;;12.90;99.90;;;;;;5086742;28;20039;-60
2023/08/05 04:24:27;;;;;;;4.40;2.65;;;13.50;99.90;;;;;;5108294;28;20163;-60
2023/08/05 04:26:53;;;;;;;3.47;2.78;;;14.00;99.90;;;;;;5086802;28;20024;-60
2023/08/05 04:29:22;;;;;;;3.60;2.65;;;14.70;99.90;;;;;;5107910;28;20024;-60
2023/08/05 04:31:48;;;;;;;3.50;2.65;;;15.30;99.90;;;;;;5086769;28;20044;-60
2023/08/05 04:34:14;;;;;;;3.33;2.20;;;15.80;99.90;;;;;;5095821;28;20512;-60
2023/08/05 04:36:39;;;;;;;3.25;2.25;;;16.50;99.90;;;;;;5092939;28;20035;-60
2023/08/05 04:39:06;;;;;;;5.20;2.60;;;17.20;99.90;;;;;;5106642;28;20106;-60
2023/08/05 04:41:32;;;;;;;3.13;1.90;;;18.00;99.90;;;;;;5086917;28;20107;-60
2023/08/05 04:43:57;;;;;;;2.50;1.90;;;18.70;99.90;;;;;;5107573;28;20125;-60
2023/08/05 04:46:23;;;;;;;3.05;2.15;;;19.40;98.70;;;;;;5097846;28;20054;-59
2023/08/05 04:48:48;;;;;;;2.40;2.20;;;19.80;96.60;;;;;;5088899;28;20046;-60
2023/08/05 04:51:14;;;;;;;3.92;2.08;;;20.20;95.60;;;;;;5105779;28;20031;-59
2023/08/05 04:53:39;;;;;;;2.40;2.00;;;20.30;93.40;;;;;;5088579;28;20239;-60
2023/08/05 04:56:04;;;;;;;3.55;2.00;;;20.50;92.00;;;;;;5105735;28;20487;-60
2023/08/05 04:58:30;;;;;;;2.72;2.30;;;20.10;91.70;;;;;;5088913;28;20024;-60
2023/08/05 05:00:56;;;;;;;3.47;2.22;;;19.70;92.20;;;;;;5105819;28;20061;-59
2023/08/05 05:03:22;;;;;;;4.00;2.30;;;19.50;92.70;;;;;;5108794;28;20020;-60
2023/08/05 05:05:47;;;;;;;3.40;2.10;;;19.60;93.60;;;;;;5092575;28;20069;-59
2023/08/05 05:08:13;;;;;;;2.28;2.00;;;19.80;93.00;;;;;;5108251;28;20024;-59
2023/08/05 05:10:38;;;;;;;2.85;2.53;;;20.00;92.60;;;;;;5091125;28;20044;-60
2023/08/05 05:13:04;;;;;;;1.85;1.70;;;20.30;91.60;;;;;;5108368;28;20056;-60
2023/08/05 05:15:29;;;;;;;1.70;1.58;;;20.40;91.50;;;;;;5092319;28;20038;-59
2023/08/05 05:17:55;;;;;;;2.05;1.83;;;20.60;91.30;;;;;;5110318;28;20095;-60
2023/08/05 05:20:20;;;;;;;3.00;1.70;;;20.90;89.60;;;;;;5092387;28;20560;-60
2023/08/05 05:22:46;;;;;;;2.10;1.90;;;20.90;89.10;;;;;;5111989;28;20028;-60
2023/08/05 05:25:11;;;;;;;2.60;1.80;;;20.80;88.10;;;;;;5090935;28;20032;-60
2023/08/05 05:27:37;;;;;;;4.03;2.05;;;20.70;88.30;;;;;;5111593;28;20364;-60
2023/08/05 05:30:03;;;;;;;2.67;2.13;;;20.50;88.40;;;;;;5096723;28;20168;-60
2023/08/05 05:32:28;;;;;;;3.72;2.33;;;20.40;88.10;;;;;;5089946;28;20078;-60
2023/08/05 05:34:54;;;;;;;2.22;1.90;;;20.30;88.10;;;;;;5107574;28;20023;-59
2023/08/05 05:37:19;;;;;;;2.17;1.90;;;20.40;88.40;;;;;;5088639;28;20020;-60
2023/08/05 05:39:45;;;;;;;2.10;1.90;;;20.60;87.10;;;;;;5110928;28;20028;-60
2023/08/05 05:42:11;;;;;;;3.30;2.08;;;21.20;86.00;;;;;;5088507;28;20369;-60
2023/08/05 05:44:38;;;;;;;2.00;1.80;;;21.80;83.80;;;;;;5110517;28;20026;-60
2023/08/05 05:47:08;;;;;;;1.88;1.77;;;22.50;81.20;;;;;;5089783;28;20392;-60
2023/08/05 05:49:34;;;;;;;2.47;1.90;;;23.20;79.30;;;;;;5111203;28;20526;-60
2023/08/05 05:52:00;;;;;;;2.53;1.95;;;23.60;74.70;;;;;;5088080;28;20032;-60
2023/08/05 05:54:25;;;;;;;3.17;1.90;;;24.00;72.80;;;;;;5110601;28;20028;-60
2023/08/05 05:56:51;;;;;;;2.22;1.85;;;24.50;71.60;;;;;;5089900;28;20579;-60
2023/08/05 05:59:16;;;;;;;2.67;2.05;;;25.30;61.00;;;;;;5110175;28;20489;-60
2023/08/05 06:01:42;;;;;;;1.55;1.40;;;25.70;66.20;;;;;;5089337;28;20028;-60
2023/08/05 06:04:09;;;;;;;2.22;1.52;;;26.40;65.50;;;;;;5089197;28;20055;-60
2023/08/05 06:06:35;;;;;;;5.10;1.50;;;27.30;62.60;;;;;;5110616;28;20032;-60
2023/08/05 06:09:02;;;;;;;3.33;1.67;;;28.20;59.70;;;;;;5089504;28;20028;-60
2023/08/05 06:11:28;;;;;;;1.80;1.70;;;28.30;53.20;;;;;;5109422;28;20613;-60
2023/08/05 06:13:54;;;;;;;3.13;1.60;;;28.70;54.60;;;;;;5089541;28;20032;-60
2023/08/05 06:16:19;;;;;;;2.13;1.50;;;29.30;50.70;;;;;;5110221;28;20042;-61
2023/08/05 06:18:45;;;;;;;2.50;1.42;;;30.10;50.00;;;;;;5089488;28;20063;-61
2023/08/05 06:21:10;;;;;;;4.13;1.77;;;30.90;46.80;;;;;;5110293;28;20024;-60
2023/08/05 06:23:36;;;;;;;1.60;1.50;;;31.00;33.80;;;;;;5087850;28;20040;-60
2023/08/05 06:26:01;;;;;;;2.85;1.60;;;30.80;39.70;;;;;;5109553;28;20035;-60
2023/08/05 06:28:27;;;;;;;1.58;1.48;;;31.70;39.30;;;;;;5089125;28;20040;-60
2023/08/05 06:30:55;;;;;;;1.88;1.33;;;31.90;35.70;;;;;;5109790;28;20036;-60
2023/08/05 06:33:20;;;;;;;3.85;1.60;;;31.00;29.40;;;;;;5089707;28;20488;-54
2023/08/05 06:35:46;;;;;;;1.20;1.00;;;30.90;34.60;;;;;;5104872;28;20042;-52
2023/08/05 06:38:11;;;;;;;2.35;1.23;;;30.90;30.50;;;;;;5089145;28;20036;-54
2023/08/05 06:40:41;;;;;;;2.15;1.60;;;31.10;28.60;;;;;;5109803;28;20050;-56
2023/08/05 06:43:06;;;;;;;1.63;1.50;;;30.50;31.20;;;;;;5089031;28;20039;-62
2023/08/05 06:45:32;;;;;;;2.05;1.48;;;30.10;32.90;;;;;;5109877;28;20309;-63
2023/08/05 06:47:57;;;;;;;4.03;1.85;;;29.80;33.00;;;;;;5088337;28;20056;-62
2023/08/05 06:50:23;;;;;;;2.38;1.30;;;29.60;33.80;;;;;;5109808;28;20398;-62
2023/08/05 06:52:49;;;;;;;3.70;1.65;;;29.40;34.50;;;;;;5088646;28;20069;-61
2023/08/05 06:55:17;;;;;;;3.80;1.52;;;29.10;35.00;;;;;;5108261;28;20112;-62
2023/08/05 06:57:42;;;;;;;2.25;1.58;;;28.70;34.50;;;;;;5088378;28;20016;-62
2023/08/05 07:00:09;;;;;;;2.90;1.83;;;28.40;35.10;;;;;;5088653;28;20027;-62
2023/08/05 07:02:35;;;;;;;2.55;1.42;;;28.20;35.00;;;;;;5099671;28;20036;-63
2023/08/05 07:05:00;;;;;;;1.77;1.40;;;28.20;35.40;;;;;;5089721;28;20107;-62
2023/08/05 07:07:25;;;;;;;3.50;1.55;;;28.10;35.30;;;;;;5102164;28;20047;-62
2023/08/05 07:09:51;;;;;;;2.08;1.58;;;27.80;35.10;;;;;;5089678;28;20040;-62
2023/08/05 07:12:16;;;;;;;2.38;1.30;;;27.30;35.30;;;;;;5107012;28;20031;-62
2023/08/05 07:14:44;;;;;;;3.85;1.25;;;27.10;36.00;;;;;;5110174;28;20360;-63
2023/08/05 07:17:10;;;;;;;16.77;2.47;;;26.80;36.20;;;;;;5086592;28;20020;-62
2023/08/05 07:19:36;;;;;;;2.67;1.65;;;26.70;36.60;;;;;;5089312;28;20063;-63
2023/08/05 07:22:01;;;;;;;2.10;1.60;;;26.60;36.80;;;;;;5105327;28;20133;-62
2023/08/05 07:24:27;;;;;;;3.33;1.65;;;26.40;36.80;;;;;;5089629;28;20035;-62
2023/08/05 07:26:52;;;;;;;6.03;1.88;;;26.10;37.10;;;;;;5106646;28;20031;-61
2023/08/05 07:29:17;;;;;;;4.10;1.45;;;25.50;37.70;;;;;;5089170;28;20071;-62
2023/08/05 07:31:43;;;;;;;3.35;1.67;;;25.30;38.70;;;;;;5108901;28;20052;-62
2023/08/05 07:34:09;;;;;;;1.85;1.30;;;25.00;38.90;;;;;;5092952;28;20542;-63
2023/08/05 07:36:35;;;;;;;4.00;1.80;;;24.60;39.10;;;;;;5089656;28;20111;-63
2023/08/05 07:39:03;;;;;;;2.88;1.50;;;24.00;41.30;;;;;;5087824;28;20095;-62
2023/08/05 07:41:30;;;;;;;2.40;1.85;;;23.70;42.30;;;;;;5109285;28;20038;-62
2023/08/05 07:43:58;;;;;;;2.40;1.50;;;23.80;42.60;;;;;;5087637;28;20020;-62
2023/08/05 07:46:25;;;;;;;5.15;1.70;;;23.90;42.60;;;;;;5109163;28;20394;-62
2023/08/05 07:48:52;;;;;;;3.35;1.50;;;23.80;42.90;;;;;;5087490;28;20112;-58
2023/08/05 07:51:19;;;;;;;2.38;1.60;;;23.80;43.60;;;;;;5108670;28;20088;-63
2023/08/05 07:53:47;;;;;;;2.67;1.52;;;23.50;43.80;;;;;;5087736;28;20047;-62
2023/08/05 07:56:14;;;;;;;3.58;1.45;;;23.40;44.70;;;;;;5108991;28;20041;-62
2023/08/05 07:58:42;;;;;;;4.45;1.65;;;23.40;44.90;;;;;;5087561;27;20045;-62
2023/08/05 08:01:08;;;;;;;2.75;1.50;;;23.20;45.70;;;;;;5108826;28;20032;-62
2023/08/05 08:03:33;;;;;;;3.53;1.50;;;23.20;46.00;;;;;;5087555;28;20541;-62
2023/08/05 08:05:59;;;;;;;1.25;1.13;;;23.20;46.70;;;;;;5108417;28;20035;-62
2023/08/05 08:08:25;;;;;;;2.35;1.25;;;23.00;46.80;;;;;;5086253;28;20032;-62
2023/08/05 08:10:51;;;;;;;3.15;1.55;;;22.90;48.70;;;;;;5108590;28;20027;-62
2023/08/05 08:13:16;;;;;;;4.78;1.80;;;22.60;49.60;;;;;;5087397;28;20445;-62
2023/08/05 08:15:42;;;;;;;4.45;2.10;;;22.40;51.00;;;;;;5108375;28;20031;-62
2023/08/05 08:18:08;;;;;;;3.05;2.13;;;21.80;52.60;;;;;;5087688;28;20023;-62
2023/08/05 08:20:33;;;;;;;4.15;1.63;;;21.60;53.80;;;;;;5107137;28;20034;-62
2023/08/05 08:22:59;;;;;;;4.22;1.73;;;21.60;55.10;;;;;;5087151;28;20028;-62
2023/08/05 08:25:24;;;;;;;4.00;1.75;;;21.60;55.00;;;;;;5103102;28;20032;-62
2023/08/05 08:27:49;;;;;;;4.45;1.80;;;21.90;54.70;;;;;;5101968;28;20101;-60
2023/08/05 08:30:15;;;;;;;3.38;1.67;;;22.00;54.30;;;;;;5092244;28;20039;-62
2023/08/05 08:32:40;;;;;;;2.70;1.65;;;22.10;54.10;;;;;;5087344;28;20012;-62
2023/08/05 08:35:06;;;;;;;3.30;1.80;;;22.20;53.80;;;;;;5102330;28;20023;-62
2023/08/05 08:37:32;;;;;;;2.45;1.65;;;22.50;53.30;;;;;;5087051;28;20527;-62
2023/08/05 08:39:57;;;;;;;4.38;2.13;;;22.40;54.40;;;;;;5107963;28;20151;-62
2023/08/05 08:42:26;;;;;;;3.30;1.92;;;22.50;54.20;;;;;;5086948;28;20111;-62
2023/08/05 08:44:52;;;;;;;2.72;1.70;;;22.60;54.60;;;;;;5107038;28;20062;-60
2023/08/05 08:47:19;;;;;;;5.50;2.00;;;22.70;54.20;;;;;;5086837;28;20036;-62
2023/08/05 08:49:46;;;;;;;3.53;1.80;;;23.10;53.60;;;;;;5109188;28;20027;-63
2023/08/05 08:52:16;;;;;;;3.85;1.60;;;23.40;53.10;;;;;;5090618;27;20035;-62
2023/08/05 08:54:43;;;;;;;1.95;1.30;;;23.90;52.30;;;;;;5092072;28;20024;-62
2023/08/05 08:57:09;;;;;;;5.70;1.67;;;24.30;51.60;;;;;;5091088;28;20036;-63
2023/08/05 08:59:35;;;;;;;3.28;1.52;;;24.60;50.80;;;;;;5111725;28;20102;-62
2023/08/05 09:02:02;;;;;;;2.78;1.70;;;24.80;49.20;;;;;;5089280;28;20426;-62
2023/08/05 09:04:32;;;;;;;2.70;1.50;;;24.80;50.80;;;;;;5111806;28;20027;-62
2023/08/05 09:06:58;;;;;;;2.45;1.30;;;25.20;50.00;;;;;;5090081;28;20122;-61
2023/08/05 09:09:23;;;;;;;2.47;1.38;;;25.50;45.20;;;;;;5110371;28;20031;-61
2023/08/05 09:11:49;;;;;;;3.47;1.45;;;25.20;46.30;;;;;;5090625;28;20020;-61
2023/08/05 09:14:16;;;;;;;2.83;1.50;;;25.30;45.50;;;;;;5111445;28;20034;-62
2023/08/05 09:16:58;;;;;;;2.92;1.60;;;25.50;45.10;;;;;;5089070;28;20119;-62
2023/08/05 09:19:26;;;;;;;3.47;1.50;;;25.30;43.60;;;;;;5111577;28;20499;-62
2023/08/05 09:21:53;;;;;;;2.22;1.40;;;25.30;46.70;;;;;;5090056;28;20031;-62
2023/08/05 09:24:23;;;;;;;3.95;1.80;;;25.50;46.30;;;;;;5111362;28;20030;-62
2023/08/05 09:26:55;;;;;;;2.42;1.70;;;25.80;45.00;;;;;;5090212;28;20178;-61
2023/08/05 09:29:21;;;;;;;2.38;1.65;;;25.60;42.20;;;;;;5071425;28;20062;-63
2023/08/05 09:32:00;;;;;;;1.90;1.58;;;25.40;44.80;;;;;;5094213;28;20693;-62
2023/08/05 09:34:39;;;;;;;1.83;1.38;;;25.70;43.70;;;;;;5086124;28;20518;-62
2023/08/05 09:37:06;;;;;;;2.63;1.50;;;25.90;43.80;;;;;;5089959;28;20039;-62
2023/08/05 09:39:47;;;;;;;2.58;1.60;;;26.10;42.90;;;;;;5111334;28;20376;-62
2023/08/05 09:42:19;;;;;;;2.42;1.40;;;25.80;41.20;;;;;;5087479;28;20024;-62
2023/08/05 09:44:45;;;;;;;2.42;1.40;;;26.10;42.10;;;;;;5111430;28;20024;-62
2023/08/05 09:47:12;;;;;;;2.60;1.30;;;26.60;41.60;;;;;;5090024;28;20020;-62
2023/08/05 09:49:38;;;;;;;1.92;1.30;;;27.00;40.90;;;;;;5109640;28;20096;-62
2023/08/05 09:52:05;;;;;;;1.23;1.13;;;27.40;40.10;;;;;;5089800;28;20073;-63
2023/08/05 09:54:32;;;;;;;2.45;1.35;;;27.50;39.40;;;;;;5110881;28;20031;-62
2023/08/05 09:57:00;;;;;;;2.15;1.20;;;27.60;38.70;;;;;;5089630;28;20071;-61
2023/08/05 09:59:27;;;;;;;3.35;1.13;;;27.50;38.30;;;;;;5111056;28;20047;-62
2023/08/05 10:01:54;;;;;;;2.78;1.50;;;27.60;38.00;;;;;;5087189;28;20089;-61
2023/08/05 10:04:20;;;;;;;1.92;1.30;;;27.80;36.80;;;;;;5110814;28;20027;-61
2023/08/05 10:06:47;;;;;;;1.75;1.38;;;28.00;36.50;;;;;;5089464;28;20053;-62
2023/08/05 10:09:12;;;;;;;2.50;1.20;;;28.00;35.90;;;;;;5110507;28;20205;-62
2023/08/05 10:11:39;;;;;;;3.53;1.23;;;27.80;35.60;;;;;;5089571;28;20483;-62
2023/08/05 10:14:06;;;;;;;2.53;1.48;;;27.60;35.60;;;;;;5110304;28;20115;-63
2023/08/05 10:16:32;;;;;;;1.80;1.27;;;27.50;35.60;;;;;;5089101;28;20035;-61
2023/08/05 10:18:58;;;;;;;1.90;1.40;;;27.50;35.60;;;;;;5110230;28;20674;-62
2023/08/05 10:21:42;;;;;;;2.55;1.38;;;27.30;35.50;;;;;;5088983;28;20107;-62
2023/08/05 10:24:08;;;;;;;1.77;1.13;;;27.20;36.40;;;;;;5070174;28;20396;-62
2023/08/05 10:26:46;;;;;;;2.63;1.17;;;27.20;35.80;;;;;;5094759;28;20032;-62
2023/08/05 10:29:28;;;;;;;2.55;1.42;;;27.30;35.00;;;;;;5109975;28;20110;-62
2023/08/05 10:32:14;;;;;;;2.53;1.58;;;27.40;35.20;;;;;;5083814;28;20048;-62
2023/08/05 10:34:40;;;;;;;4.32;1.45;;;27.40;35.50;;;;;;5104835;28;20167;-62
2023/08/05 10:37:05;;;;;;;1.98;1.25;;;27.50;35.50;;;;;;5088887;28;20385;-62
2023/08/05 10:39:40;;;;;;;2.65;1.40;;;27.50;35.10;;;;;;5109790;28;20035;-62
2023/08/05 10:42:32;;;;;;;4.55;1.65;;;27.30;34.30;;;;;;5088421;28;20055;-61
2023/08/05 10:45:03;;;;;;;2.90;1.60;;;26.90;35.00;;;;;;5069903;28;20024;-61
2023/08/05 10:47:29;;;;;;;1.45;1.20;;;26.80;35.50;;;;;;5069856;28;20064;-62
2023/08/05 10:49:59;;;;;;;1.50;1.25;;;26.80;35.30;;;;;;5108934;28;20070;-62
2023/08/05 10:52:25;;;;;;;1.17;1.00;;;26.80;35.10;;;;;;5087938;28;20031;-62
2023/08/05 10:54:51;;;;;;;1.55;1.20;;;26.90;34.90;;;;;;5109448;28;20028;-62
2023/08/05 10:57:39;;;;;;;2.65;1.30;;;26.70;34.70;;;;;;5088385;28;20056;-62
2023/08/05 11:00:07;;;;;;;2.45;1.45;;;26.00;34.50;;;;;;5106930;28;20483;-61
2023/08/05 11:02:32;;;;;;;4.25;1.33;;;25.90;35.70;;;;;;5089771;28;20024;-62
2023/08/05 11:05:06;;;;;;;3.03;1.27;;;25.90;35.70;;;;;;5109174;28;20035;-63
2023/08/05 11:07:35;;;;;;;2.10;1.77;;;26.00;36.20;;;;;;5069380;28;20028;-63
2023/08/05 11:10:03;;;;;;;2.67;1.33;;;26.20;35.90;;;;;;5108107;28;20039;-62
2023/08/05 11:12:29;;;;;;;2.05;1.40;;;26.30;35.70;;;;;;5069150;28;20119;-62
2023/08/05 11:14:56;;;;;;;2.20;1.00;;;26.20;35.50;;;;;;5108429;28;20118;-61
2023/08/05 11:17:21;;;;;;;1.92;1.40;;;26.00;34.20;;;;;;5088033;28;20553;-61
2023/08/05 11:19:54;;;;;;;3.40;1.60;;;25.90;35.10;;;;;;5107723;28;20035;-61
2023/08/05 11:22:32;;;;;;;1.45;1.30;;;25.50;35.30;;;;;;5087563;28;20024;-61
2023/08/05 11:25:04;;;;;;;1.88;1.33;;;25.60;36.40;;;;;;5069009;28;20025;-61
2023/08/05 11:27:34;;;;;;;3.13;1.70;;;25.90;35.50;;;;;;5069086;28;20024;-62
2023/08/05 11:30:13;;;;;;;5.05;1.63;;;26.00;35.90;;;;;;5078161;28;20503;-62
2023/08/05 11:33:07;;;;;;;3.25;1.58;;;25.80;35.60;;;;;;5069009;28;20064;-61
2023/08/05 11:35:41;;;;;;;3.42;1.33;;;26.00;37.30;;;;;;5055312;28;20523;-62
2023/08/05 11:38:08;;;;;;;3.17;1.27;;;26.10;36.50;;;;;;5089237;28;20555;-62
2023/08/05 11:40:50;;;;;;;1.92;1.27;;;26.10;36.50;;;;;;5102539;28;20074;-61
2023/08/05 11:43:19;;;;;;;2.80;1.48;;;26.10;36.40;;;;;;5089024;28;20081;-62
2023/08/05 11:45:45;;;;;;;3.38;1.80;;;25.90;35.80;;;;;;5101054;28;20046;-61
2023/08/05 11:48:24;;;;;;;3.90;1.80;;;25.60;36.70;;;;;;5088808;28;20052;-62
2023/08/05 11:50:51;;;;;;;2.92;1.40;;;25.20;37.10;;;;;;5072202;28;20031;-60
2023/08/05 11:53:18;;;;;;;3.53;1.70;;;25.10;37.60;;;;;;5088891;28;20475;-61
2023/08/05 11:55:44;;;;;;;3.10;1.50;;;25.20;37.50;;;;;;5100704;28;20105;-62
2023/08/05 11:58:11;;;;;;;2.90;1.63;;;25.10;37.20;;;;;;5088792;28;20024;-61
2023/08/05 12:00:42;;;;;;;2.58;1.20;;;24.80;37.10;;;;;;5101688;28;20036;-61
2023/08/05 12:03:08;;;;;;;3.25;1.55;;;25.00;37.40;;;;;;5088887;28;20109;-62
2023/08/05 12:05:34;;;;;;;1.33;1.23;;;25.10;37.70;;;;;;5101896;28;20609;-62
2023/08/05 12:07:59;;;;;;;1.63;1.35;;;25.40;37.20;;;;;;5088582;28;20024;-61
2023/08/05 12:10:27;;;;;;;4.35;1.25;;;25.50;36.60;;;;;;5101857;28;20020;-62
2023/08/05 12:12:53;;;;;;;3.15;1.25;;;25.60;36.60;;;;;;5088788;28;20095;-61
2023/08/05 12:15:26;;;;;;;2.38;1.30;;;25.80;36.40;;;;;;5103829;28;20023;-61
2023/08/05 12:17:55;;;;;;;1.55;1.10;;;25.90;36.20;;;;;;5088700;28;20392;-60
2023/08/05 12:20:38;;;;;;;3.05;1.58;;;26.00;35.90;;;;;;5104140;28;20024;-61
2023/08/05 12:23:05;;;;;;;3.17;1.40;;;26.10;35.20;;;;;;5088609;28;20028;-62
2023/08/05 12:25:32;;;;;;;1.65;1.40;;;26.20;35.60;;;;;;5104891;28;20035;-62
2023/08/05 12:27:58;;;;;;;3.35;1.30;;;26.20;35.00;;;;;;5092549;28;20043;-62
2023/08/05 12:30:24;;;;;;;2.58;1.48;;;26.20;34.60;;;;;;5102045;28;20505;-62
2023/08/05 12:32:50;;;;;;;1.67;1.20;;;26.30;35.10;;;;;;5112234;28;20024;-60
2023/08/05 12:35:16;;;;;;;4.10;1.42;;;26.20;35.00;;;;;;5088074;28;20032;-62
2023/08/05 12:37:42;;;;;;;1.58;1.20;;;25.70;35.40;;;;;;5092514;28;20024;-61
2023/08/05 12:40:09;;;;;;;2.05;1.30;;;25.50;35.80;;;;;;5109443;28;20554;-61
2023/08/05 12:42:35;;;;;;;1.60;1.33;;;25.40;35.80;;;;;;5092568;28;20038;-61
2023/08/05 12:45:03;;;;;;;2.15;1.30;;;25.50;35.90;;;;;;5111950;28;20038;-61
2023/08/05 12:47:32;;;;;;;7.28;1.63;;;25.70;35.60;;;;;;5072204;28;20024;-62